createdAt,value
2022-07-28T00:00:33.543Z,0.00
2022-07-28T00:01:33.590Z,0.00
2022-07-28T00:02:33.549Z,0.00
2022-07-28T00:03:33.531Z,0.00
2022-07-28T00:04:33.523Z,0.00
2022-07-28T00:05:33.516Z,0.00
2022-07-28T00:06:33.508Z,0.00
2022-07-28T00:07:33.502Z,0.00
2022-07-28T00:08:33.492Z,0.00
2022-07-28T00:09:33.488Z,0.00
2022-07-28T00:10:33.484Z,0.00
2022-07-28T00:11:33.479Z,0.00
2022-07-28T00:12:33.474Z,0.00
2022-07-28T00:13:33.470Z,0.00
2022-07-28T00:14:33.464Z,0.00
2022-07-28T00:15:33.467Z,0.00
2022-07-28T00:16:33.543Z,0.00
2022-07-28T00:17:33.454Z,0.00
2022-07-28T00:18:33.437Z,0.00
2022-07-28T00:19:33.434Z,0.00
2022-07-28T00:20:33.433Z,0.00
2022-07-28T00:21:33.420Z,0.00
2022-07-28T00:22:33.416Z,0.00
2022-07-28T00:23:39.250Z,0.00
2022-07-28T00:24:33.406Z,0.00
2022-07-28T00:25:33.407Z,0.00
2022-07-28T00:26:33.392Z,0.00
2022-07-28T00:27:33.388Z,0.00
2022-07-28T00:28:33.383Z,0.00
2022-07-28T00:29:49.175Z,0.00
2022-07-28T00:30:33.370Z,0.00
2022-07-28T00:31:33.439Z,0.00
2022-07-28T00:32:33.363Z,0.00
2022-07-28T00:33:33.356Z,0.00
2022-07-28T00:34:33.349Z,0.00
2022-07-28T00:35:33.347Z,0.00
2022-07-28T00:36:33.335Z,0.00
2022-07-28T00:37:33.335Z,0.00
2022-07-28T00:38:33.321Z,0.00
2022-07-28T00:39:33.318Z,0.00
2022-07-28T00:40:33.312Z,0.00
2022-07-28T00:41:33.306Z,0.00
2022-07-28T00:42:33.301Z,0.00
2022-07-28T00:43:33.300Z,0.00
2022-07-28T00:44:33.289Z,0.00
2022-07-28T00:45:33.287Z,0.00
2022-07-28T00:46:33.351Z,0.00
2022-07-28T00:47:34.045Z,0.00
2022-07-28T00:48:33.303Z,0.00
2022-07-28T00:49:33.263Z,0.00
2022-07-28T00:50:33.257Z,0.00
2022-07-28T00:51:33.249Z,0.00
2022-07-28T00:52:33.245Z,0.00
2022-07-28T00:53:33.238Z,0.00
2022-07-28T00:54:33.241Z,0.00
2022-07-28T00:55:33.225Z,0.00
2022-07-28T00:56:33.225Z,0.00
2022-07-28T00:57:33.216Z,0.00
2022-07-28T00:58:33.205Z,0.00
2022-07-28T00:59:33.914Z,0.00
2022-07-28T01:00:33.203Z,0.00
2022-07-28T01:01:33.234Z,0.00
2022-07-28T01:02:33.307Z,0.00
2022-07-28T01:03:33.178Z,0.00
2022-07-28T01:04:33.175Z,0.00
2022-07-28T01:05:43.980Z,0.00
2022-07-28T01:06:33.161Z,0.00
2022-07-28T01:07:33.151Z,0.00
2022-07-28T01:08:33.148Z,0.00
2022-07-28T01:09:33.145Z,0.00
2022-07-28T01:10:33.137Z,0.00
2022-07-28T01:11:41.583Z,0.00
2022-07-28T01:12:33.123Z,0.00
2022-07-28T01:13:33.243Z,0.00
2022-07-28T01:14:33.113Z,0.00
2022-07-28T01:15:33.105Z,0.00
2022-07-28T01:16:33.204Z,0.00
2022-07-28T01:17:33.094Z,0.00
2022-07-28T01:18:33.089Z,0.00
2022-07-28T01:19:33.082Z,0.00
2022-07-28T01:20:33.071Z,0.00
2022-07-28T01:21:33.071Z,0.00
2022-07-28T01:22:33.061Z,0.00
2022-07-28T01:23:33.060Z,0.00
2022-07-28T01:24:33.052Z,0.00
2022-07-28T01:25:33.045Z,0.00
2022-07-28T01:26:33.038Z,0.00
2022-07-28T01:27:33.032Z,0.00
2022-07-28T01:28:33.025Z,0.00
2022-07-28T01:29:33.029Z,0.00
2022-07-28T01:30:33.011Z,0.00
2022-07-28T01:31:33.045Z,0.00
2022-07-28T01:32:33.004Z,0.00
2022-07-28T01:33:32.996Z,0.00
2022-07-28T01:34:32.989Z,0.00
2022-07-28T01:35:32.980Z,0.00
2022-07-28T01:36:40.140Z,0.00
2022-07-28T01:38:26.093Z,0.00
2022-07-28T01:39:26.069Z,0.00
2022-07-28T01:41:19.182Z,0.00
2022-07-28T01:42:19.163Z,0.00
2022-07-28T01:44:12.529Z,0.00
2022-07-28T01:45:12.248Z,0.00
2022-07-28T01:47:16.253Z,0.00
2022-07-28T01:48:16.231Z,0.00
2022-07-28T01:49:16.307Z,0.00
2022-07-28T01:50:16.221Z,0.00
2022-07-28T01:51:16.207Z,0.00
2022-07-28T01:52:16.200Z,0.00
2022-07-28T01:53:16.193Z,0.00
2022-07-28T01:54:16.607Z,0.00
2022-07-28T01:55:16.186Z,0.00
2022-07-28T01:56:16.182Z,0.00
2022-07-28T01:57:16.170Z,0.00
2022-07-28T01:58:16.159Z,0.00
2022-07-28T01:59:16.158Z,0.00
2022-07-28T02:00:16.147Z,0.00
2022-07-28T02:01:16.193Z,0.00
2022-07-28T02:02:16.136Z,0.00
2022-07-28T02:03:16.137Z,0.00
2022-07-28T02:04:16.660Z,0.00
2022-07-28T02:05:16.198Z,0.00
2022-07-28T02:06:16.112Z,0.00
2022-07-28T02:07:16.107Z,0.00
2022-07-28T02:08:16.109Z,0.00
2022-07-28T02:09:16.097Z,0.00
2022-07-28T02:10:16.710Z,0.00
2022-07-28T02:11:16.086Z,0.00
2022-07-28T02:12:16.072Z,0.00
2022-07-28T02:13:16.068Z,0.00
2022-07-28T02:14:16.509Z,0.00
2022-07-28T02:15:16.056Z,0.00
2022-07-28T02:16:16.105Z,0.00
2022-07-28T02:17:16.040Z,0.00
2022-07-28T02:19:56.260Z,0.00
2022-07-28T02:20:47.856Z,0.00
2022-07-28T02:22:40.973Z,0.00
2022-07-28T02:23:40.950Z,0.00
2022-07-28T02:25:34.050Z,0.00
2022-07-28T02:26:34.036Z,0.00
2022-07-28T02:28:27.150Z,0.00
2022-07-28T02:29:49.690Z,0.00
2022-07-28T02:31:20.307Z,0.00
2022-07-28T02:32:28.162Z,0.00
2022-07-28T02:34:13.661Z,0.00
2022-07-28T02:35:13.319Z,0.00
2022-07-28T02:37:06.429Z,0.00
2022-07-28T02:38:06.409Z,0.00
2022-07-28T02:40:10.418Z,0.00
2022-07-28T02:41:10.404Z,0.00
2022-07-28T02:43:14.409Z,0.00
2022-07-28T02:44:14.944Z,0.00
2022-07-28T02:46:07.605Z,0.00
2022-07-28T02:47:07.486Z,0.00
2022-07-28T02:49:00.479Z,0.00
2022-07-28T02:50:01.344Z,0.00
2022-07-28T02:51:00.372Z,0.00
2022-07-28T02:52:00.362Z,0.00
2022-07-28T02:53:00.353Z,0.00
2022-07-28T02:54:00.348Z,0.00
2022-07-28T02:55:00.341Z,0.00
2022-07-28T02:56:00.335Z,0.00
2022-07-28T02:57:00.327Z,0.00
2022-07-28T02:58:00.323Z,0.00
2022-07-28T02:59:00.318Z,0.00
2022-07-28T03:00:00.312Z,0.00
2022-07-28T03:01:00.363Z,0.00
2022-07-28T03:02:00.379Z,0.00
2022-07-28T03:03:00.288Z,0.00
2022-07-28T03:04:00.281Z,0.00
2022-07-28T03:05:00.337Z,0.00
2022-07-28T03:06:00.269Z,0.00
2022-07-28T03:07:00.264Z,0.00
2022-07-28T03:08:00.256Z,0.00
2022-07-28T03:09:00.245Z,0.00
2022-07-28T03:10:00.250Z,0.00
2022-07-28T03:11:00.232Z,0.00
2022-07-28T03:12:00.232Z,0.00
2022-07-28T03:13:00.217Z,0.00
2022-07-28T03:14:00.219Z,0.00
2022-07-28T03:15:00.212Z,5.63
2022-07-28T03:16:00.199Z,5.63
2022-07-28T03:17:00.327Z,5.63
2022-07-28T03:18:00.184Z,5.63
2022-07-28T03:19:00.180Z,5.63
2022-07-28T03:20:00.178Z,5.63
2022-07-28T03:21:00.166Z,5.63
2022-07-28T03:22:00.153Z,5.63
2022-07-28T03:23:00.155Z,5.63
2022-07-28T03:24:00.139Z,11.25
2022-07-28T03:25:00.132Z,11.25
2022-07-28T03:26:00.130Z,11.25
2022-07-28T03:27:00.160Z,11.25
2022-07-28T03:28:00.126Z,11.25
2022-07-28T03:29:00.105Z,11.25
2022-07-28T03:30:03.645Z,11.25
2022-07-28T03:31:00.163Z,16.88
2022-07-28T03:32:00.091Z,16.88
2022-07-28T03:33:00.079Z,16.88
2022-07-28T03:35:42.795Z,16.88
2022-07-28T03:36:42.783Z,22.50
2022-07-28T03:38:46.773Z,22.50
2022-07-28T03:39:46.749Z,22.50
2022-07-28T03:41:39.864Z,28.13
2022-07-28T03:42:39.842Z,28.13
2022-07-28T03:44:43.816Z,28.13
2022-07-28T03:45:46.531Z,33.75
2022-07-28T03:47:36.916Z,39.38
2022-07-28T03:48:36.913Z,50.63
2022-07-28T03:50:40.889Z,73.13
2022-07-28T03:51:40.876Z,73.13
2022-07-28T03:52:40.872Z,78.75
2022-07-28T03:53:41.861Z,84.38
2022-07-28T03:54:40.858Z,84.38
2022-07-28T03:55:40.853Z,90.00
2022-07-28T03:56:40.843Z,95.63
2022-07-28T03:57:40.836Z,95.63
2022-07-28T03:58:40.824Z,101.25
2022-07-28T03:59:40.827Z,106.88
2022-07-28T04:00:40.827Z,106.88
2022-07-28T04:01:40.865Z,112.50
2022-07-28T04:02:40.878Z,118.13
2022-07-28T04:03:43.980Z,123.75
2022-07-28T04:04:40.784Z,123.75
2022-07-28T04:05:40.784Z,129.38
2022-07-28T04:06:40.774Z,135.00
2022-07-28T04:07:40.769Z,140.63
2022-07-28T04:08:40.764Z,140.63
2022-07-28T04:09:40.755Z,151.88
2022-07-28T04:10:40.751Z,157.50
2022-07-28T04:11:40.745Z,168.75
2022-07-28T04:12:40.736Z,174.38
2022-07-28T04:13:40.725Z,174.38
2022-07-28T04:14:40.726Z,180.00
2022-07-28T04:15:40.716Z,191.25
2022-07-28T04:16:40.742Z,196.88
2022-07-28T04:17:40.707Z,202.50
2022-07-28T04:18:40.702Z,208.13
2022-07-28T04:19:40.688Z,208.13
2022-07-28T04:20:40.683Z,213.75
2022-07-28T04:21:40.675Z,219.38
2022-07-28T04:22:40.668Z,225.00
2022-07-28T04:23:40.668Z,230.63
2022-07-28T04:24:40.658Z,236.25
2022-07-28T04:25:40.651Z,241.88
2022-07-28T04:26:40.645Z,247.50
2022-07-28T04:27:40.636Z,253.13
2022-07-28T04:28:40.632Z,258.75
2022-07-28T04:29:40.627Z,264.38
2022-07-28T04:30:44.286Z,270.00
2022-07-28T04:31:40.613Z,270.00
2022-07-28T04:32:40.610Z,275.63
2022-07-28T04:33:40.600Z,281.25
2022-07-28T04:34:40.592Z,281.25
2022-07-28T04:35:40.611Z,286.88
2022-07-28T04:36:40.583Z,286.88
2022-07-28T04:37:40.582Z,292.50
2022-07-28T04:38:40.571Z,292.50
2022-07-28T04:39:40.565Z,298.13
2022-07-28T04:40:40.560Z,298.13
2022-07-28T04:41:40.558Z,303.75
2022-07-28T04:42:40.557Z,303.75
2022-07-28T04:43:40.543Z,309.38
2022-07-28T04:44:40.538Z,309.38
2022-07-28T04:45:46.042Z,315.00
2022-07-28T04:46:40.616Z,315.00
2022-07-28T04:47:40.523Z,320.63
2022-07-28T04:48:40.551Z,320.63
2022-07-28T04:49:40.522Z,326.25
2022-07-28T04:50:40.512Z,326.25
2022-07-28T04:51:40.499Z,331.88
2022-07-28T04:52:40.500Z,331.88
2022-07-28T04:53:40.488Z,331.88
2022-07-28T04:54:40.491Z,337.50
2022-07-28T04:55:40.486Z,337.50
2022-07-28T04:56:40.486Z,326.25
2022-07-28T04:57:40.482Z,337.50
2022-07-28T04:58:40.471Z,343.13
2022-07-28T04:59:40.472Z,348.75
2022-07-28T05:00:40.463Z,348.75
2022-07-28T05:01:40.516Z,354.38
2022-07-28T05:02:40.455Z,354.38
2022-07-28T05:03:40.459Z,354.38
2022-07-28T05:04:40.468Z,354.38
2022-07-28T05:05:40.444Z,360.00
2022-07-28T05:06:40.445Z,360.00
2022-07-28T05:07:40.433Z,360.00
2022-07-28T05:08:40.434Z,360.00
2022-07-28T05:09:40.429Z,354.38
2022-07-28T05:10:40.423Z,360.00
2022-07-28T05:11:40.426Z,354.38
2022-07-28T05:12:40.419Z,365.63
2022-07-28T05:13:40.416Z,360.00
2022-07-28T05:14:40.412Z,360.00
2022-07-28T05:15:40.413Z,360.00
2022-07-28T05:16:40.444Z,360.00
2022-07-28T05:17:40.404Z,354.38
2022-07-28T05:18:40.401Z,354.38
2022-07-28T05:19:40.392Z,354.38
2022-07-28T05:20:40.396Z,354.38
2022-07-28T05:21:40.392Z,354.38
2022-07-28T05:22:40.384Z,343.13
2022-07-28T05:23:43.182Z,343.13
2022-07-28T05:24:40.382Z,331.88
2022-07-28T05:25:40.380Z,326.25
2022-07-28T05:26:40.378Z,343.13
2022-07-28T05:27:40.376Z,348.75
2022-07-28T05:28:40.372Z,354.38
2022-07-28T05:29:46.814Z,365.63
2022-07-28T05:30:40.366Z,371.25
2022-07-28T05:31:40.402Z,376.88
2022-07-28T05:32:40.361Z,376.88
2022-07-28T05:33:40.361Z,360.00
2022-07-28T05:34:40.355Z,348.75
2022-07-28T05:35:40.355Z,360.00
2022-07-28T05:36:40.354Z,360.00
2022-07-28T05:37:40.349Z,365.63
2022-07-28T05:38:40.346Z,365.63
2022-07-28T05:39:40.350Z,365.63
2022-07-28T05:40:40.339Z,376.88
2022-07-28T05:41:40.336Z,382.50
2022-07-28T05:42:40.340Z,388.13
2022-07-28T05:43:40.332Z,388.13
2022-07-28T05:44:40.332Z,393.75
2022-07-28T05:45:40.373Z,393.75
2022-07-28T05:46:40.327Z,393.75
2022-07-28T05:47:40.338Z,393.75
2022-07-28T05:48:40.373Z,393.75
2022-07-28T05:49:40.332Z,399.38
2022-07-28T05:50:40.319Z,399.38
2022-07-28T05:51:41.895Z,399.38
2022-07-28T05:52:40.312Z,393.75
2022-07-28T05:53:40.315Z,388.13
2022-07-28T05:54:40.313Z,388.13
2022-07-28T05:56:00.656Z,388.13
2022-07-28T05:56:40.312Z,388.13
2022-07-28T05:57:40.309Z,388.13
2022-07-28T05:58:40.307Z,388.13
2022-07-28T05:59:40.310Z,388.13
2022-07-28T06:00:40.402Z,388.13
2022-07-28T06:01:40.337Z,393.75
2022-07-28T06:02:40.368Z,393.75
2022-07-28T06:03:42.507Z,399.38
2022-07-28T06:04:40.297Z,405.00
2022-07-28T06:06:00.731Z,405.00
2022-07-28T06:06:40.289Z,405.00
2022-07-28T06:07:43.723Z,405.00
2022-07-28T06:08:40.338Z,393.75
2022-07-28T06:09:44.886Z,416.25
2022-07-28T06:10:40.292Z,410.63
2022-07-28T06:11:40.291Z,427.50
2022-07-28T06:12:40.292Z,438.75
2022-07-28T06:13:40.287Z,455.63
2022-07-28T06:14:40.286Z,472.50
2022-07-28T06:15:40.286Z,495.00
2022-07-28T06:16:40.325Z,523.13
2022-07-28T06:17:40.283Z,562.50
2022-07-28T06:18:40.286Z,618.75
2022-07-28T06:19:40.287Z,798.75
2022-07-28T06:20:40.285Z,1203.75
2022-07-28T06:21:40.438Z,1586.25
2022-07-28T06:22:40.290Z,1693.13
2022-07-28T06:23:40.283Z,1738.13
2022-07-28T06:24:40.285Z,1816.88
2022-07-28T06:25:40.286Z,1839.38
2022-07-28T06:26:44.276Z,1912.50
2022-07-28T06:27:40.280Z,1974.38
2022-07-28T06:28:40.288Z,1974.38
2022-07-28T06:29:40.287Z,1957.50
2022-07-28T06:30:40.289Z,2019.38
2022-07-28T06:31:40.422Z,1957.50
2022-07-28T06:32:40.286Z,1890.00
2022-07-28T06:33:40.326Z,1906.88
2022-07-28T06:34:40.287Z,1766.25
2022-07-28T06:35:45.910Z,2120.63
2022-07-28T06:36:40.290Z,2126.25
2022-07-28T06:37:40.288Z,2070.00
2022-07-28T06:38:40.328Z,1935.00
2022-07-28T06:39:40.316Z,2036.25
2022-07-28T06:40:40.292Z,1811.25
2022-07-28T06:41:40.298Z,2041.88
2022-07-28T06:42:40.296Z,1541.25
2022-07-28T06:43:40.303Z,1676.25
2022-07-28T06:44:57.805Z,1856.25
2022-07-28T06:45:40.299Z,1721.25
2022-07-28T06:46:40.343Z,1749.38
2022-07-28T06:47:45.806Z,1845.00
2022-07-28T06:48:40.341Z,1648.13
2022-07-28T06:49:40.301Z,1546.88
2022-07-28T06:50:40.304Z,1614.38
2022-07-28T06:51:40.306Z,1361.25
2022-07-28T06:52:40.309Z,1316.25
2022-07-28T06:53:40.313Z,1597.50
2022-07-28T06:54:40.304Z,1833.75
2022-07-28T06:55:41.190Z,1918.13
2022-07-28T06:56:40.315Z,2013.75
2022-07-28T06:57:40.324Z,1710.00
2022-07-28T06:58:40.317Z,1845.00
2022-07-28T06:59:40.322Z,1856.25
2022-07-28T07:00:40.341Z,1816.88
2022-07-28T07:01:40.329Z,1951.88
2022-07-28T07:02:40.333Z,1940.63
2022-07-28T07:03:40.329Z,1951.88
2022-07-28T07:04:40.417Z,1721.25
2022-07-28T07:05:40.334Z,1839.38
2022-07-28T07:06:40.331Z,1704.38
2022-07-28T07:07:43.300Z,1749.38
2022-07-28T07:08:40.346Z,1681.88
2022-07-28T07:09:40.333Z,1783.13
2022-07-28T07:10:40.334Z,1468.13
2022-07-28T07:11:40.340Z,1569.38
2022-07-28T07:12:40.342Z,1681.88
2022-07-28T07:13:40.341Z,1665.00
2022-07-28T07:14:40.346Z,1822.50
2022-07-28T07:15:40.347Z,1783.13
2022-07-28T07:16:40.410Z,1215.00
2022-07-28T07:17:40.361Z,1794.38
2022-07-28T07:18:40.353Z,1940.63
2022-07-28T07:19:40.363Z,2047.50
2022-07-28T07:20:40.360Z,1906.88
2022-07-28T07:21:40.362Z,1946.25
2022-07-28T07:22:40.370Z,2126.25
2022-07-28T07:23:40.365Z,2255.63
2022-07-28T07:24:40.372Z,2306.25
2022-07-28T07:25:40.373Z,2306.25
2022-07-28T07:26:40.371Z,2154.38
2022-07-28T07:27:40.374Z,2103.75
2022-07-28T07:28:40.386Z,2098.13
2022-07-28T07:29:40.389Z,2070.00
2022-07-28T07:30:40.376Z,2002.50
2022-07-28T07:31:40.491Z,2030.63
2022-07-28T07:32:40.385Z,2120.63
2022-07-28T07:33:40.390Z,2154.38
2022-07-28T07:34:40.432Z,1912.50
2022-07-28T07:35:40.392Z,2058.75
2022-07-28T07:36:40.393Z,2081.25
2022-07-28T07:37:40.398Z,2188.13
2022-07-28T07:38:40.408Z,2356.88
2022-07-28T07:39:40.425Z,2345.63
2022-07-28T07:40:40.406Z,2570.63
2022-07-28T07:41:40.410Z,2576.25
2022-07-28T07:42:40.412Z,2508.75
2022-07-28T07:43:43.364Z,2463.75
2022-07-28T07:44:40.422Z,2407.50
2022-07-28T07:45:40.429Z,2463.75
2022-07-28T07:46:40.556Z,2379.38
2022-07-28T07:47:40.428Z,2323.13
2022-07-28T07:48:40.489Z,2278.13
2022-07-28T07:49:45.222Z,2283.75
2022-07-28T07:50:40.436Z,2311.88
2022-07-28T07:51:40.439Z,2345.63
2022-07-28T07:52:40.449Z,2446.88
2022-07-28T07:53:40.456Z,2491.88
2022-07-28T07:54:40.459Z,2401.88
2022-07-28T07:55:40.454Z,2115.00
2022-07-28T07:56:40.456Z,1980.00
2022-07-28T07:57:40.461Z,2160.00
2022-07-28T07:58:40.462Z,2126.25
2022-07-28T07:59:40.469Z,2188.13
2022-07-28T08:00:40.481Z,2019.38
2022-07-28T08:01:40.797Z,2092.50
2022-07-28T08:02:40.492Z,1940.63
2022-07-28T08:03:40.489Z,1771.88
2022-07-28T08:04:40.562Z,1755.00
2022-07-28T08:05:40.495Z,1788.75
2022-07-28T08:06:40.511Z,1884.38
2022-07-28T08:07:40.505Z,1861.88
2022-07-28T08:08:45.097Z,1845.00
2022-07-28T08:09:40.519Z,1828.13
2022-07-28T08:10:40.526Z,1878.75
2022-07-28T08:11:40.518Z,1828.13
2022-07-28T08:12:40.522Z,1738.13
2022-07-28T08:13:40.526Z,1670.63
2022-07-28T08:14:40.534Z,1524.38
2022-07-28T08:15:40.560Z,1271.25
2022-07-28T08:16:40.599Z,804.38
2022-07-28T08:17:40.574Z,646.88
2022-07-28T08:18:40.544Z,607.50
2022-07-28T08:19:40.547Z,585.00
2022-07-28T08:20:41.611Z,568.13
2022-07-28T08:21:40.553Z,545.63
2022-07-28T08:22:40.553Z,489.38
2022-07-28T08:23:40.559Z,472.50
2022-07-28T08:24:40.560Z,472.50
2022-07-28T08:25:40.596Z,483.75
2022-07-28T08:26:40.561Z,506.25
2022-07-28T08:27:40.566Z,511.88
2022-07-28T08:28:40.620Z,511.88
2022-07-28T08:29:40.574Z,500.63
2022-07-28T08:30:40.575Z,506.25
2022-07-28T08:31:40.626Z,506.25
2022-07-28T08:32:40.580Z,506.25
2022-07-28T08:33:53.909Z,500.63
2022-07-28T08:34:40.590Z,500.63
2022-07-28T08:35:40.586Z,500.63
2022-07-28T08:36:40.587Z,500.63
2022-07-28T08:37:40.589Z,500.63
2022-07-28T08:38:40.588Z,506.25
2022-07-28T08:39:40.596Z,517.50
2022-07-28T08:40:40.590Z,528.75
2022-07-28T08:41:40.597Z,528.75
2022-07-28T08:42:40.593Z,534.38
2022-07-28T08:43:40.597Z,545.63
2022-07-28T08:44:40.600Z,562.50
2022-07-28T08:45:40.602Z,624.38
2022-07-28T08:46:40.638Z,1063.13
2022-07-28T08:47:58.585Z,984.38
2022-07-28T08:48:40.658Z,635.63
2022-07-28T08:49:40.602Z,708.75
2022-07-28T08:50:40.601Z,770.63
2022-07-28T08:51:40.602Z,748.13
2022-07-28T08:52:40.614Z,646.88
2022-07-28T08:53:40.608Z,658.13
2022-07-28T08:54:40.608Z,635.63
2022-07-28T08:55:40.605Z,618.75
2022-07-28T08:56:40.608Z,826.88
2022-07-28T08:57:40.614Z,652.50
2022-07-28T08:58:40.608Z,686.25
2022-07-28T08:59:40.611Z,781.88
2022-07-28T09:00:40.610Z,652.50
2022-07-28T09:01:40.726Z,658.13
2022-07-28T09:02:40.810Z,528.75
2022-07-28T09:03:40.641Z,500.63
2022-07-28T09:04:40.613Z,495.00
2022-07-28T09:05:40.616Z,489.38
2022-07-28T09:06:40.611Z,478.13
2022-07-28T09:07:40.616Z,466.88
2022-07-28T09:08:40.617Z,461.25
2022-07-28T09:09:40.618Z,455.63
2022-07-28T09:10:40.615Z,455.63
2022-07-28T09:11:40.613Z,461.25
2022-07-28T09:12:40.619Z,472.50
2022-07-28T09:13:40.626Z,472.50
2022-07-28T09:14:40.623Z,472.50
2022-07-28T09:15:40.656Z,472.50
2022-07-28T09:16:40.617Z,483.75
2022-07-28T09:17:40.618Z,483.75
2022-07-28T09:18:40.614Z,478.13
2022-07-28T09:19:40.615Z,472.50
2022-07-28T09:20:40.617Z,472.50
2022-07-28T09:21:40.618Z,472.50
2022-07-28T09:22:40.619Z,472.50
2022-07-28T09:23:43.948Z,478.13
2022-07-28T09:24:40.627Z,472.50
2022-07-28T09:25:40.623Z,472.50
2022-07-28T09:26:40.619Z,472.50
2022-07-28T09:27:40.621Z,478.13
2022-07-28T09:28:40.625Z,478.13
2022-07-28T09:29:40.663Z,466.88
2022-07-28T09:30:53.517Z,461.25
2022-07-28T09:31:40.709Z,461.25
2022-07-28T09:32:40.622Z,461.25
2022-07-28T09:33:42.315Z,466.88
2022-07-28T09:34:40.617Z,466.88
2022-07-28T09:35:40.618Z,466.88
2022-07-28T09:36:40.621Z,478.13
2022-07-28T09:37:40.616Z,483.75
2022-07-28T09:38:40.622Z,483.75
2022-07-28T09:39:40.626Z,483.75
2022-07-28T09:40:40.619Z,483.75
2022-07-28T09:41:40.619Z,495.00
2022-07-28T09:42:40.623Z,500.63
2022-07-28T09:43:40.617Z,506.25
2022-07-28T09:44:40.617Z,506.25
2022-07-28T09:45:40.614Z,500.63
2022-07-28T09:46:40.757Z,495.00
2022-07-28T09:47:40.862Z,495.00
2022-07-28T09:48:40.815Z,495.00
2022-07-28T09:49:40.681Z,500.63
2022-07-28T09:50:40.617Z,495.00
2022-07-28T09:51:40.618Z,495.00
2022-07-28T09:52:40.681Z,483.75
2022-07-28T09:53:40.703Z,478.13
2022-07-28T09:54:41.360Z,466.88
2022-07-28T09:55:40.621Z,450.00
2022-07-28T09:56:40.621Z,438.75
2022-07-28T09:57:41.611Z,421.88
2022-07-28T09:58:40.619Z,410.63
2022-07-28T09:59:40.617Z,410.63
2022-07-28T10:00:40.620Z,399.38
2022-07-28T10:01:40.681Z,393.75
2022-07-28T10:02:40.645Z,382.50
2022-07-28T10:03:40.614Z,376.88
2022-07-28T10:04:40.630Z,365.63
2022-07-28T10:05:40.615Z,354.38
2022-07-28T10:06:40.617Z,343.13
2022-07-28T10:07:40.618Z,337.50
2022-07-28T10:08:42.010Z,326.25
2022-07-28T10:09:40.618Z,315.00
2022-07-28T10:10:40.615Z,309.38
2022-07-28T10:11:41.834Z,303.75
2022-07-28T10:12:40.613Z,298.13
2022-07-28T10:13:40.613Z,298.13
2022-07-28T10:14:40.617Z,292.50
2022-07-28T10:15:46.666Z,286.88
2022-07-28T10:16:40.659Z,275.63
2022-07-28T10:17:40.609Z,258.75
2022-07-28T10:18:40.610Z,264.38
2022-07-28T10:19:40.610Z,270.00
2022-07-28T10:20:40.605Z,270.00
2022-07-28T10:21:40.620Z,270.00
2022-07-28T10:22:43.279Z,264.38
2022-07-28T10:23:40.614Z,275.63
2022-07-28T10:24:40.609Z,270.00
2022-07-28T10:25:40.609Z,264.38
2022-07-28T10:26:40.610Z,247.50
2022-07-28T10:27:40.602Z,253.13
2022-07-28T10:28:42.349Z,247.50
2022-07-28T10:29:40.608Z,253.13
2022-07-28T10:30:40.692Z,241.88
2022-07-28T10:31:40.601Z,230.63
2022-07-28T10:32:40.602Z,225.00
2022-07-28T10:33:40.598Z,219.38
2022-07-28T10:34:40.599Z,213.75
2022-07-28T10:35:54.783Z,213.75
2022-07-28T10:36:40.595Z,213.75
2022-07-28T10:37:40.599Z,213.75
2022-07-28T10:38:40.598Z,219.38
2022-07-28T10:39:40.597Z,230.63
2022-07-28T10:40:40.590Z,241.88
2022-07-28T10:41:40.594Z,258.75
2022-07-28T10:42:40.601Z,264.38
2022-07-28T10:43:42.866Z,270.00
2022-07-28T10:44:40.604Z,275.63
2022-07-28T10:46:04.340Z,281.25
2022-07-28T10:46:40.629Z,281.25
2022-07-28T10:47:40.587Z,281.25
2022-07-28T10:48:40.616Z,281.25
2022-07-28T10:49:40.586Z,275.63
2022-07-28T10:50:40.585Z,270.00
2022-07-28T10:51:54.117Z,258.75
2022-07-28T10:52:48.838Z,247.50
2022-07-28T10:53:40.583Z,236.25
2022-07-28T10:54:41.107Z,236.25
2022-07-28T10:55:40.755Z,236.25
2022-07-28T10:56:40.571Z,225.00
2022-07-28T10:57:40.575Z,225.00
2022-07-28T10:58:40.588Z,208.13
2022-07-28T10:59:40.572Z,202.50
2022-07-28T11:00:54.980Z,196.88
2022-07-28T11:01:49.838Z,196.88
2022-07-28T11:02:40.693Z,196.88
2022-07-28T11:03:41.100Z,202.50
2022-07-28T11:04:40.574Z,202.50
2022-07-28T11:05:40.569Z,208.13
2022-07-28T11:06:40.564Z,196.88
2022-07-28T11:07:40.569Z,202.50
2022-07-28T11:08:40.563Z,196.88
2022-07-28T11:09:40.562Z,196.88
2022-07-28T11:12:44.399Z,202.50
2022-07-28T11:13:14.303Z,202.50
2022-07-28T11:16:50.633Z,196.88
2022-07-28T11:17:50.579Z,191.25
2022-07-28T11:19:55.883Z,180.00
2022-07-28T11:22:03.635Z,174.38
2022-07-28T11:24:28.464Z,168.75
2022-07-28T11:25:28.453Z,168.75
2022-07-28T11:27:32.652Z,168.75
2022-07-28T11:28:32.445Z,163.13
2022-07-28T11:29:32.442Z,168.75
2022-07-28T11:30:32.506Z,168.75
2022-07-28T11:31:32.448Z,168.75
2022-07-28T11:32:42.285Z,163.13
2022-07-28T11:33:32.445Z,168.75
2022-07-28T11:34:32.435Z,123.75
2022-07-28T11:35:32.516Z,129.38
2022-07-28T11:36:32.439Z,123.75
2022-07-28T11:37:32.437Z,135.00
2022-07-28T11:38:32.433Z,123.75
2022-07-28T11:39:42.850Z,180.00
2022-07-28T11:40:32.433Z,185.63
2022-07-28T11:41:32.433Z,196.88
2022-07-28T11:42:33.806Z,208.13
2022-07-28T11:43:36.444Z,219.38
2022-07-28T11:44:32.433Z,225.00
2022-07-28T11:45:37.563Z,219.38
2022-07-28T11:46:32.457Z,219.38
2022-07-28T11:47:32.424Z,219.38
2022-07-28T11:48:32.420Z,196.88
2022-07-28T11:49:32.470Z,180.00
2022-07-28T11:50:32.420Z,174.38
2022-07-28T11:51:35.168Z,174.38
2022-07-28T11:52:32.415Z,180.00
2022-07-28T11:53:32.415Z,185.63
2022-07-28T11:54:32.420Z,191.25
2022-07-28T11:55:55.777Z,202.50
2022-07-28T11:56:32.416Z,208.13
2022-07-28T11:57:32.415Z,219.38
2022-07-28T11:58:32.408Z,236.25
2022-07-28T11:59:36.742Z,236.25
2022-07-28T12:00:32.412Z,230.63
2022-07-28T12:01:32.521Z,213.75
2022-07-28T12:02:32.458Z,225.00
2022-07-28T12:03:49.535Z,225.00
2022-07-28T12:04:32.427Z,135.00
2022-07-28T12:05:34.194Z,135.00
2022-07-28T12:06:32.404Z,129.38
2022-07-28T12:07:32.414Z,123.75
2022-07-28T12:08:32.400Z,118.13
2022-07-28T12:09:41.303Z,123.75
2022-07-28T12:10:56.434Z,123.75
2022-07-28T12:11:32.401Z,123.75
2022-07-28T12:12:32.396Z,135.00
2022-07-28T12:13:32.399Z,168.75
2022-07-28T12:14:36.008Z,163.13
2022-07-28T12:15:32.392Z,163.13
2022-07-28T12:16:32.512Z,163.13
2022-07-28T12:17:32.395Z,163.13
2022-07-28T12:18:32.391Z,163.13
2022-07-28T12:19:33.017Z,163.13
2022-07-28T12:20:32.390Z,168.75
2022-07-28T12:21:32.396Z,168.75
2022-07-28T12:22:32.392Z,123.75
2022-07-28T12:23:45.941Z,123.75
2022-07-28T12:24:45.840Z,135.00
2022-07-28T12:25:32.384Z,168.75
2022-07-28T12:26:32.386Z,129.38
2022-07-28T12:27:32.397Z,123.75
2022-07-28T12:28:32.377Z,129.38
2022-07-28T12:29:35.695Z,118.13
2022-07-28T12:30:32.384Z,118.13
2022-07-28T12:31:32.420Z,118.13
2022-07-28T12:32:32.378Z,123.75
2022-07-28T12:33:32.374Z,168.75
2022-07-28T12:34:32.386Z,168.75
2022-07-28T12:35:32.380Z,168.75
2022-07-28T12:36:32.376Z,157.50
2022-07-28T12:37:32.371Z,146.25
2022-07-28T12:38:32.373Z,135.00
2022-07-28T12:39:32.367Z,146.25
2022-07-28T12:40:32.367Z,157.50
2022-07-28T12:41:32.367Z,185.63
2022-07-28T12:42:32.427Z,196.88
2022-07-28T12:43:32.364Z,191.25
2022-07-28T12:44:32.366Z,185.63
2022-07-28T12:45:32.390Z,180.00
2022-07-28T12:46:32.362Z,185.63
2022-07-28T12:47:32.363Z,191.25
2022-07-28T12:48:32.357Z,196.88
2022-07-28T12:49:32.357Z,191.25
2022-07-28T12:50:32.359Z,185.63
2022-07-28T12:51:32.361Z,196.88
2022-07-28T12:52:32.408Z,196.88
2022-07-28T12:53:32.361Z,191.25
2022-07-28T12:54:32.364Z,191.25
2022-07-28T12:55:32.354Z,191.25
2022-07-28T12:56:32.348Z,196.88
2022-07-28T12:57:32.356Z,208.13
2022-07-28T12:58:32.347Z,213.75
2022-07-28T12:59:32.350Z,213.75
2022-07-28T13:00:32.345Z,208.13
2022-07-28T13:01:32.373Z,202.50
2022-07-28T13:02:32.377Z,202.50
2022-07-28T13:03:32.342Z,196.88
2022-07-28T13:04:32.346Z,185.63
2022-07-28T13:05:32.346Z,185.63
2022-07-28T13:06:32.340Z,191.25
2022-07-28T13:07:32.339Z,196.88